createdAt,value
2023-04-09T00:00:47.030Z,40.16
2023-04-09T00:01:47.065Z,44.46
2023-04-09T00:02:47.067Z,37.76
2023-04-09T00:03:47.024Z,37.72
2023-04-09T00:04:47.084Z,37.45
2023-04-09T00:05:46.968Z,37.43
2023-04-09T00:06:46.979Z,37.41
2023-04-09T00:07:46.961Z,37.88
2023-04-09T00:08:46.955Z,40.92
2023-04-09T00:09:46.931Z,40.41
2023-04-09T00:10:46.936Z,36.99
2023-04-09T00:11:46.913Z,36.97
2023-04-09T00:12:46.907Z,37.23
2023-04-09T00:13:46.894Z,37.39
2023-04-09T00:14:46.879Z,37.54
2023-04-09T00:15:46.863Z,37.83
2023-04-09T00:16:46.870Z,37.67
2023-04-09T00:17:46.870Z,37.47
2023-04-09T00:18:46.831Z,37.23
2023-04-09T00:19:46.820Z,37.45
2023-04-09T00:20:46.832Z,37.69
2023-04-09T00:21:46.795Z,37.44
2023-04-09T00:22:46.804Z,37.48
2023-04-09T00:23:46.781Z,37.56
2023-04-09T00:24:46.774Z,40.82
2023-04-09T00:25:46.766Z,37.05
2023-04-09T00:26:46.747Z,37.40
2023-04-09T00:27:46.766Z,37.50
2023-04-09T00:28:46.723Z,42.18
2023-04-09T00:29:46.714Z,43.65
2023-04-09T00:30:46.713Z,37.21
2023-04-09T00:31:46.761Z,36.95
2023-04-09T00:32:46.739Z,36.96
2023-04-09T00:33:46.670Z,36.82
2023-04-09T00:34:47.876Z,36.98
2023-04-09T00:35:47.842Z,37.04
2023-04-09T00:36:47.797Z,36.89
2023-04-09T00:37:47.803Z,36.84
2023-04-09T00:38:47.808Z,37.59
2023-04-09T00:39:47.783Z,37.69
2023-04-09T00:40:47.793Z,37.79
2023-04-09T00:41:47.779Z,37.67
2023-04-09T00:42:47.789Z,37.62
2023-04-09T00:43:47.740Z,37.37
2023-04-09T00:44:47.748Z,37.52
2023-04-09T00:45:47.756Z,37.64
2023-04-09T00:46:47.710Z,37.84
2023-04-09T00:47:47.775Z,38.53
2023-04-09T00:48:47.696Z,37.70
2023-04-09T00:49:47.709Z,37.63
2023-04-09T00:50:47.675Z,37.27
2023-04-09T00:51:47.668Z,37.04
2023-04-09T00:52:47.647Z,37.09
2023-04-09T00:53:47.652Z,37.15
2023-04-09T00:54:47.633Z,37.15
2023-04-09T00:55:47.609Z,37.06
2023-04-09T00:56:47.619Z,37.05
2023-04-09T00:57:47.615Z,37.20
2023-04-09T00:58:47.578Z,37.69
2023-04-09T00:59:47.594Z,45.94
2023-04-09T01:00:47.617Z,44.65
2023-04-09T01:01:47.608Z,37.11
2023-04-09T01:02:47.761Z,37.13
2023-04-09T01:03:47.666Z,43.00
2023-04-09T01:04:47.538Z,40.28
2023-04-09T01:05:47.522Z,36.73
2023-04-09T01:06:47.529Z,36.61
2023-04-09T01:07:47.521Z,36.93
2023-04-09T01:08:48.469Z,36.60
2023-04-09T01:09:47.482Z,36.69
2023-04-09T01:10:47.458Z,37.38
2023-04-09T01:11:47.459Z,38.65
2023-04-09T01:12:47.451Z,36.93
2023-04-09T01:13:48.455Z,36.63
2023-04-09T01:14:47.443Z,36.74
2023-04-09T01:15:47.408Z,36.66
2023-04-09T01:16:47.424Z,36.67
2023-04-09T01:17:47.439Z,36.51
2023-04-09T01:18:47.349Z,36.49
2023-04-09T01:19:47.342Z,36.39
2023-04-09T01:20:47.392Z,38.04
2023-04-09T01:21:47.317Z,45.55
2023-04-09T01:22:47.363Z,36.95
2023-04-09T01:23:47.347Z,36.27
2023-04-09T01:24:47.319Z,36.38
2023-04-09T01:25:47.318Z,36.50
2023-04-09T01:26:47.296Z,43.17
2023-04-09T01:27:47.347Z,36.65
2023-04-09T01:28:47.272Z,36.61
2023-04-09T01:29:47.280Z,41.46
2023-04-09T01:30:47.379Z,37.78
2023-04-09T01:31:47.252Z,36.75
2023-04-09T01:32:47.291Z,36.91
2023-04-09T01:33:47.236Z,36.79
2023-04-09T01:34:47.221Z,36.71
2023-04-09T01:35:47.245Z,36.75
2023-04-09T01:36:47.203Z,36.82
2023-04-09T01:37:47.170Z,36.76
2023-04-09T01:38:47.170Z,36.71
2023-04-09T01:39:47.170Z,36.69
2023-04-09T01:40:47.144Z,37.15
2023-04-09T01:41:47.172Z,37.09
2023-04-09T01:42:47.126Z,36.75
2023-04-09T01:43:47.148Z,37.03
2023-04-09T01:44:47.148Z,37.94
2023-04-09T01:45:47.148Z,36.84
2023-04-09T01:46:47.110Z,37.19
2023-04-09T01:47:47.111Z,39.73
2023-04-09T01:48:47.119Z,37.70
2023-04-09T01:49:47.076Z,38.11
2023-04-09T01:50:47.075Z,38.16
2023-04-09T01:51:47.050Z,38.24
2023-04-09T01:52:47.034Z,36.91
2023-04-09T01:53:47.081Z,36.73
2023-04-09T01:54:47.046Z,36.42
2023-04-09T01:55:47.019Z,36.12
2023-04-09T01:56:47.026Z,36.70
2023-04-09T01:57:46.996Z,36.99
2023-04-09T01:58:46.994Z,37.13
2023-04-09T01:59:47.011Z,38.18
2023-04-09T02:00:46.958Z,43.42
2023-04-09T02:01:47.161Z,37.40
2023-04-09T02:02:47.007Z,41.48
2023-04-09T02:03:46.988Z,44.52
2023-04-09T02:04:46.903Z,37.92
2023-04-09T02:05:46.910Z,37.48
2023-04-09T02:06:46.908Z,36.96
2023-04-09T02:07:46.874Z,42.41
2023-04-09T02:08:46.901Z,41.33
2023-04-09T02:09:46.861Z,40.27
2023-04-09T02:10:46.865Z,38.23
2023-04-09T02:11:46.827Z,37.06
2023-04-09T02:12:46.829Z,36.87
2023-04-09T02:13:46.848Z,36.85
2023-04-09T02:14:47.859Z,36.82
2023-04-09T02:15:46.844Z,36.55
2023-04-09T02:16:46.829Z,36.62
2023-04-09T02:17:46.850Z,36.59
2023-04-09T02:18:46.793Z,36.72
2023-04-09T02:19:46.767Z,36.85
2023-04-09T02:20:46.767Z,36.60
2023-04-09T02:21:46.763Z,36.79
2023-04-09T02:22:46.739Z,36.83
2023-04-09T02:23:46.768Z,36.77
2023-04-09T02:24:46.727Z,37.11
2023-04-09T02:25:46.749Z,36.68
2023-04-09T02:26:46.688Z,36.69
2023-04-09T02:27:46.702Z,36.80
2023-04-09T02:28:46.706Z,36.88
2023-04-09T02:29:46.682Z,37.10
2023-04-09T02:30:46.708Z,37.38
2023-04-09T02:31:46.640Z,37.33
2023-04-09T02:32:46.690Z,37.44
2023-04-09T02:33:46.643Z,36.80
2023-04-09T02:34:46.652Z,36.73
2023-04-09T02:35:46.637Z,36.81
2023-04-09T02:36:46.598Z,37.05
2023-04-09T02:37:46.574Z,36.59
2023-04-09T02:38:46.601Z,36.70
2023-04-09T02:39:46.566Z,36.98
2023-04-09T02:40:46.545Z,37.22
2023-04-09T02:41:46.549Z,37.19
2023-04-09T02:42:46.540Z,36.97
2023-04-09T02:43:46.582Z,36.77
2023-04-09T02:44:46.495Z,37.16
2023-04-09T02:45:46.508Z,37.34
2023-04-09T02:47:46.532Z,37.03
2023-04-09T02:48:46.503Z,36.84
2023-04-09T02:49:46.499Z,36.91
2023-04-09T02:50:46.457Z,36.76
2023-04-09T02:51:46.450Z,36.64
2023-04-09T02:52:46.460Z,37.06
2023-04-09T02:53:46.423Z,37.26
2023-04-09T02:54:46.426Z,37.02
2023-04-09T02:55:46.419Z,37.15
2023-04-09T02:56:46.376Z,37.32
2023-04-09T02:57:46.367Z,37.55
2023-04-09T02:58:46.402Z,37.42
2023-04-09T02:59:46.378Z,37.61
2023-04-09T03:00:46.378Z,37.69
2023-04-09T03:01:46.382Z,37.96
2023-04-09T03:02:46.502Z,37.51
2023-04-09T03:03:46.418Z,37.63
2023-04-09T03:04:46.349Z,37.94
2023-04-09T03:05:46.294Z,37.55
2023-04-09T03:06:46.287Z,37.39
2023-04-09T03:07:46.294Z,37.20
2023-04-09T03:08:46.263Z,37.03
2023-04-09T03:09:46.278Z,36.95
2023-04-09T03:10:46.262Z,36.99
2023-04-09T03:11:46.226Z,38.95
2023-04-09T03:12:46.238Z,48.91
2023-04-09T03:13:46.226Z,41.71
2023-04-09T03:14:46.290Z,38.49
2023-04-09T03:15:46.210Z,44.44
2023-04-09T03:16:46.208Z,37.36
2023-04-09T03:17:46.227Z,43.97
2023-04-09T03:18:46.179Z,45.48
2023-04-09T03:19:46.186Z,36.99
2023-04-09T03:20:46.150Z,37.77
2023-04-09T03:21:46.129Z,48.65
2023-04-09T03:22:46.164Z,41.62
2023-04-09T03:23:46.133Z,37.07
2023-04-09T03:24:46.132Z,44.88
2023-04-09T03:25:46.099Z,37.34
2023-04-09T03:26:46.067Z,37.44
2023-04-09T03:27:46.074Z,37.50
2023-04-09T03:28:46.090Z,37.87
2023-04-09T03:29:46.098Z,37.25
2023-04-09T03:30:46.045Z,37.37
2023-04-09T03:31:46.037Z,37.28
2023-04-09T03:32:46.058Z,37.18
2023-04-09T03:33:46.017Z,37.40
2023-04-09T03:34:46.028Z,37.93
2023-04-09T03:35:46.043Z,38.20
2023-04-09T03:36:45.979Z,37.83
2023-04-09T03:37:45.978Z,40.49
2023-04-09T03:38:45.971Z,42.60
2023-04-09T03:39:45.969Z,37.75
2023-04-09T03:40:45.948Z,43.45
2023-04-09T03:41:45.932Z,38.69
2023-04-09T03:42:45.924Z,38.74
2023-04-09T03:43:45.920Z,43.56
2023-04-09T03:44:45.942Z,45.68
2023-04-09T03:45:45.903Z,44.19
2023-04-09T03:46:45.940Z,47.30
2023-04-09T03:47:45.894Z,39.95
2023-04-09T03:48:45.882Z,44.85
2023-04-09T03:49:45.869Z,46.43
2023-04-09T03:50:45.844Z,45.84
2023-04-09T03:51:45.866Z,40.36
2023-04-09T03:52:45.836Z,44.72
2023-04-09T03:53:45.841Z,44.65
2023-04-09T03:54:45.823Z,47.62
2023-04-09T03:55:45.815Z,42.74
2023-04-09T03:56:45.805Z,42.15
2023-04-09T03:57:45.780Z,42.56
2023-04-09T03:58:45.799Z,43.53
2023-04-09T03:59:45.766Z,45.00
2023-04-09T04:00:45.770Z,50.47
2023-04-09T04:01:45.838Z,51.07
2023-04-09T04:02:45.848Z,52.59
2023-04-09T04:03:45.825Z,52.93
2023-04-09T04:04:45.828Z,52.26
2023-04-09T04:05:45.694Z,52.17
2023-04-09T04:06:45.699Z,52.53
2023-04-09T04:07:45.692Z,54.13
2023-04-09T04:08:45.680Z,53.37
2023-04-09T04:09:45.683Z,53.10
2023-04-09T04:10:45.635Z,51.51
2023-04-09T04:11:45.653Z,51.52
2023-04-09T04:12:45.641Z,51.78
2023-04-09T04:13:45.607Z,51.23
2023-04-09T04:14:45.612Z,53.15
2023-04-09T04:15:45.605Z,50.19
2023-04-09T04:16:45.658Z,47.23
2023-04-09T04:17:45.597Z,50.62
2023-04-09T04:18:45.588Z,47.67
2023-04-09T04:19:45.551Z,47.02
2023-04-09T04:20:45.566Z,44.60
2023-04-09T04:21:45.541Z,45.77
2023-04-09T04:22:45.524Z,42.72
2023-04-09T04:23:45.529Z,44.88
2023-04-09T04:24:45.490Z,44.77
2023-04-09T04:25:45.495Z,43.06
2023-04-09T04:26:45.509Z,44.35
2023-04-09T04:27:45.480Z,45.62
2023-04-09T04:28:45.480Z,44.54
2023-04-09T04:29:45.449Z,45.36
2023-04-09T04:30:45.421Z,44.43
2023-04-09T04:31:46.591Z,45.51
2023-04-09T04:32:45.469Z,45.82
2023-04-09T04:33:45.431Z,43.90
2023-04-09T04:34:45.386Z,45.64
2023-04-09T04:35:45.438Z,42.39
2023-04-09T04:36:45.407Z,42.29
2023-04-09T04:37:45.374Z,43.22
2023-04-09T04:38:45.361Z,42.94
2023-04-09T04:39:45.433Z,43.51
2023-04-09T04:40:45.351Z,43.09
2023-04-09T04:41:45.351Z,45.63
2023-04-09T04:42:45.320Z,43.82
2023-04-09T04:43:45.350Z,43.39
2023-04-09T04:44:45.364Z,46.03
2023-04-09T04:45:45.351Z,44.25
2023-04-09T04:46:45.313Z,46.28
2023-04-09T04:47:45.349Z,44.59
2023-04-09T04:48:45.241Z,45.41
2023-04-09T04:49:45.243Z,45.88
2023-04-09T04:50:45.249Z,46.85
2023-04-09T04:51:45.233Z,46.25
2023-04-09T04:52:45.264Z,48.56
2023-04-09T04:53:45.214Z,44.50
2023-04-09T04:54:45.216Z,45.47
2023-04-09T04:55:45.188Z,43.65
2023-04-09T04:56:45.174Z,42.33
2023-04-09T04:57:45.177Z,42.24
2023-04-09T04:58:45.147Z,42.72
2023-04-09T04:59:45.141Z,43.93
2023-04-09T05:00:45.239Z,42.19
2023-04-09T05:01:45.172Z,43.39
2023-04-09T05:02:45.181Z,42.51
2023-04-09T05:03:45.199Z,42.14
2023-04-09T05:04:45.099Z,38.88
2023-04-09T05:05:45.107Z,39.13
2023-04-09T05:06:45.085Z,40.72
2023-04-09T05:07:45.095Z,40.97
2023-04-09T05:08:45.034Z,45.22
2023-04-09T05:09:45.065Z,39.48
2023-04-09T05:10:45.060Z,39.25
2023-04-09T05:11:45.063Z,39.77
2023-04-09T05:12:45.057Z,39.83
2023-04-09T05:13:45.037Z,45.52
2023-04-09T05:14:45.029Z,39.78
2023-04-09T05:15:45.016Z,44.48
2023-04-09T05:16:45.027Z,42.15
2023-04-09T05:17:45.002Z,41.78
2023-04-09T05:18:45.028Z,41.86
2023-04-09T05:19:44.957Z,42.22
2023-04-09T05:20:44.980Z,40.14
2023-04-09T05:21:46.819Z,40.74
2023-04-09T05:22:44.935Z,45.82
2023-04-09T05:23:44.925Z,40.97
2023-04-09T05:24:44.900Z,44.10
2023-04-09T05:25:44.892Z,44.04
2023-04-09T05:26:44.883Z,42.07
2023-04-09T05:27:44.865Z,47.75
2023-04-09T05:28:44.880Z,41.81
2023-04-09T05:29:44.861Z,46.26
2023-04-09T05:30:44.864Z,45.48
2023-04-09T05:31:44.825Z,41.75
2023-04-09T05:32:44.841Z,41.02
2023-04-09T05:33:44.802Z,39.03
2023-04-09T05:34:44.793Z,48.91
2023-04-09T05:35:45.450Z,44.08
2023-04-09T05:36:45.023Z,43.95
2023-04-09T05:37:44.781Z,44.50
2023-04-09T05:38:44.797Z,47.02
2023-04-09T05:39:44.803Z,44.10
2023-04-09T05:40:44.760Z,40.80
2023-04-09T05:41:44.746Z,39.78
2023-04-09T05:42:44.722Z,38.09
2023-04-09T05:43:44.717Z,45.44
2023-04-09T05:44:44.713Z,47.24
2023-04-09T05:45:44.740Z,45.62
2023-04-09T05:46:44.682Z,45.02
2023-04-09T05:47:44.720Z,40.48
2023-04-09T05:48:44.693Z,39.21
2023-04-09T05:49:44.693Z,40.48
2023-04-09T05:50:54.072Z,42.07
2023-04-09T05:51:46.651Z,41.09
2023-04-09T05:52:44.618Z,40.97
2023-04-09T05:53:44.632Z,41.80
2023-04-09T05:54:44.629Z,44.56
2023-04-09T05:55:44.622Z,43.34
2023-04-09T05:56:44.591Z,42.29
2023-04-09T05:57:45.973Z,39.93
2023-04-09T05:58:47.587Z,38.98
2023-04-09T05:59:44.564Z,48.04
2023-04-09T06:00:44.611Z,41.78
2023-04-09T06:01:44.560Z,48.06
2023-04-09T06:02:44.713Z,45.86
2023-04-09T06:03:44.638Z,41.66
2023-04-09T06:04:44.560Z,45.59
2023-04-09T06:05:44.548Z,45.73
2023-04-09T06:06:44.464Z,41.70
2023-04-09T06:07:44.493Z,43.28
2023-04-09T06:08:45.386Z,43.18
2023-04-09T06:09:51.403Z,40.18
2023-04-09T06:10:44.487Z,48.76
2023-04-09T06:11:47.039Z,46.93
2023-04-09T06:12:44.442Z,40.32
2023-04-09T06:13:44.436Z,45.19
2023-04-09T06:14:44.438Z,42.59
2023-04-09T06:15:44.454Z,37.69
2023-04-09T06:16:44.400Z,37.90
2023-04-09T06:17:44.419Z,41.30
2023-04-09T06:18:44.374Z,46.04
2023-04-09T06:19:44.364Z,42.62
2023-04-09T06:20:44.382Z,39.51
2023-04-09T06:21:44.359Z,39.86
2023-04-09T06:22:44.350Z,38.49
2023-04-09T06:23:44.335Z,38.31
2023-04-09T06:24:44.335Z,45.64
2023-04-09T06:25:44.327Z,45.67
2023-04-09T06:26:44.329Z,40.16
2023-04-09T06:27:44.478Z,44.11
2023-04-09T06:28:44.275Z,39.61
2023-04-09T06:29:44.257Z,46.76
2023-04-09T06:30:44.402Z,43.73
2023-04-09T06:31:44.244Z,45.11
2023-04-09T06:32:53.672Z,42.52
2023-04-09T06:33:46.228Z,47.72
2023-04-09T06:34:44.215Z,43.75
2023-04-09T06:35:44.205Z,43.37
2023-04-09T06:36:44.184Z,47.72
2023-04-09T06:37:44.161Z,48.96
2023-04-09T06:38:44.185Z,39.92
2023-04-09T06:39:50.688Z,44.90
2023-04-09T06:40:46.147Z,47.22
2023-04-09T06:41:44.140Z,49.41
2023-04-09T06:42:44.151Z,41.21
2023-04-09T06:43:44.115Z,47.07
2023-04-09T06:44:44.091Z,46.14
2023-04-09T06:45:44.068Z,44.25
2023-04-09T06:46:44.098Z,47.28
2023-04-09T06:47:44.085Z,39.33
2023-04-09T06:48:44.054Z,41.93
2023-04-09T06:49:44.032Z,40.05
2023-04-09T06:50:44.047Z,39.46
2023-04-09T06:51:44.020Z,43.29
2023-04-09T06:52:44.008Z,42.98
2023-04-09T06:53:43.999Z,45.73
2023-04-09T06:54:44.040Z,42.45
2023-04-09T06:55:44.011Z,43.87
2023-04-09T06:56:44.099Z,42.16
2023-04-09T06:57:43.983Z,38.50
2023-04-09T06:58:43.961Z,38.60
2023-04-09T06:59:43.929Z,41.02
2023-04-09T07:00:43.944Z,45.08
2023-04-09T07:01:44.040Z,41.34
2023-04-09T07:02:44.146Z,40.93
2023-04-09T07:03:43.951Z,40.18
2023-04-09T07:04:43.974Z,42.01
2023-04-09T07:05:43.876Z,45.57
2023-04-09T07:06:43.943Z,40.22
2023-04-09T07:07:43.943Z,47.39
2023-04-09T07:08:43.832Z,44.37
2023-04-09T07:09:43.846Z,40.88
2023-04-09T07:10:43.818Z,41.40
2023-04-09T07:11:43.851Z,39.99
2023-04-09T07:12:43.840Z,40.29
2023-04-09T07:13:43.829Z,47.45
2023-04-09T07:14:43.870Z,38.82
2023-04-09T07:15:43.843Z,43.16
2023-04-09T07:16:43.906Z,39.10
2023-04-09T07:17:43.904Z,45.16
2023-04-09T07:18:43.839Z,39.10
2023-04-09T07:19:43.758Z,38.50
2023-04-09T07:20:43.704Z,48.71
2023-04-09T07:21:43.740Z,41.08
2023-04-09T07:22:43.693Z,45.22
2023-04-09T07:23:43.696Z,38.71
2023-04-09T07:24:43.779Z,45.96
2023-04-09T07:25:43.683Z,42.83
2023-04-09T07:26:43.666Z,43.65
2023-04-09T07:27:43.658Z,45.71
2023-04-09T07:28:43.656Z,47.60
2023-04-09T07:29:43.644Z,43.73
2023-04-09T07:30:43.638Z,39.27
2023-04-09T07:31:43.649Z,45.60
2023-04-09T07:32:43.665Z,46.93
2023-04-09T07:33:43.588Z,46.04
2023-04-09T07:34:43.576Z,43.76
2023-04-09T07:35:43.591Z,47.16
2023-04-09T07:36:44.523Z,50.67
2023-04-09T07:37:43.581Z,39.88
2023-04-09T07:38:43.532Z,38.70
2023-04-09T07:39:43.535Z,47.22
2023-04-09T07:40:43.536Z,46.83
2023-04-09T07:41:43.552Z,46.66
2023-04-09T07:42:43.494Z,46.48
2023-04-09T07:43:43.513Z,47.08
2023-04-09T07:44:43.476Z,45.97
2023-04-09T07:45:43.444Z,49.31
2023-04-09T07:46:43.578Z,52.68
2023-04-09T07:47:43.442Z,48.92
2023-04-09T07:48:43.468Z,39.09
2023-04-09T07:49:43.408Z,38.28
2023-04-09T07:50:43.416Z,41.48
2023-04-09T07:51:43.655Z,49.05
2023-04-09T07:52:43.399Z,41.86
2023-04-09T07:53:43.371Z,39.77
2023-04-09T07:54:43.363Z,40.24
2023-04-09T07:55:43.376Z,41.76
2023-04-09T07:56:43.360Z,42.34
2023-04-09T07:57:43.343Z,43.78
2023-04-09T07:58:43.334Z,43.02
2023-04-09T07:59:43.318Z,39.19
2023-04-09T08:00:43.325Z,43.05
2023-04-09T08:01:43.393Z,42.44
2023-04-09T08:02:43.398Z,41.21
2023-04-09T08:03:43.337Z,43.97
2023-04-09T08:04:43.470Z,39.30
2023-04-09T08:05:43.268Z,39.35
2023-04-09T08:06:43.293Z,46.65
2023-04-09T08:07:43.236Z,39.37
2023-04-09T08:08:43.251Z,43.30
2023-04-09T08:09:43.217Z,43.97
2023-04-09T08:10:43.219Z,42.14
2023-04-09T08:11:43.224Z,44.73
2023-04-09T08:12:43.207Z,41.64
2023-04-09T08:13:43.208Z,46.08
2023-04-09T08:14:43.203Z,49.96
2023-04-09T08:15:43.155Z,47.07
2023-04-09T08:16:43.243Z,42.68
2023-04-09T08:17:43.184Z,42.20
2023-04-09T08:18:43.139Z,40.48
2023-04-09T08:19:43.136Z,39.48
2023-04-09T08:20:43.132Z,43.75
2023-04-09T08:21:43.212Z,38.77
2023-04-09T08:22:43.116Z,47.50
2023-04-09T08:23:43.092Z,46.68
2023-04-09T08:24:43.105Z,39.23
2023-04-09T08:25:43.038Z,41.35
2023-04-09T08:26:43.050Z,48.80
2023-04-09T08:27:43.080Z,42.19
2023-04-09T08:28:43.042Z,42.54
2023-04-09T08:29:43.038Z,45.94
2023-04-09T08:30:43.038Z,42.60
2023-04-09T08:31:43.031Z,46.25
2023-04-09T08:32:43.034Z,42.31
2023-04-09T08:33:43.008Z,46.27
2023-04-09T08:34:42.997Z,39.53
2023-04-09T08:35:42.973Z,39.05
2023-04-09T08:36:42.979Z,39.20
2023-04-09T08:37:42.948Z,45.50
2023-04-09T08:38:42.947Z,39.64
2023-04-09T08:39:42.931Z,47.93
2023-04-09T08:40:42.934Z,40.56
2023-04-09T08:41:42.928Z,41.62
2023-04-09T08:42:42.925Z,42.26
2023-04-09T08:43:56.986Z,47.86
2023-04-09T08:44:44.895Z,45.13
2023-04-09T08:45:42.923Z,43.18
2023-04-09T08:46:42.889Z,45.00
2023-04-09T08:47:42.983Z,47.66
2023-04-09T08:48:42.952Z,41.19
2023-04-09T08:49:42.850Z,44.93
2023-04-09T08:50:42.847Z,40.94
2023-04-09T08:51:42.811Z,45.90
2023-04-09T08:52:42.817Z,46.85
2023-04-09T08:53:42.798Z,44.29
2023-04-09T08:54:42.838Z,46.93
2023-04-09T08:55:42.778Z,40.96
2023-04-09T08:56:42.888Z,43.86
2023-04-09T08:57:42.755Z,43.33
2023-04-09T08:58:42.766Z,45.57
2023-04-09T08:59:42.733Z,46.29
2023-04-09T09:00:42.726Z,49.69
2023-04-09T09:01:42.770Z,48.28
2023-04-09T09:02:42.794Z,49.42
2023-04-09T09:03:42.752Z,45.47
2023-04-09T09:04:42.708Z,41.01
2023-04-09T09:05:42.697Z,44.17
2023-04-09T09:06:42.673Z,49.23
2023-04-09T09:07:42.655Z,44.12
2023-04-09T09:08:42.657Z,43.68
2023-04-09T09:09:42.715Z,44.57
2023-04-09T09:10:42.622Z,52.82
2023-04-09T09:11:42.616Z,44.93
2023-04-09T09:12:42.616Z,48.12
2023-04-09T09:13:42.602Z,41.95
2023-04-09T09:14:42.564Z,44.32
2023-04-09T09:15:42.563Z,39.37
2023-04-09T09:16:42.784Z,42.45
2023-04-09T09:17:42.664Z,42.94
2023-04-09T09:18:42.612Z,44.85
2023-04-09T09:19:42.514Z,52.84
2023-04-09T09:20:42.514Z,49.69
2023-04-09T09:21:42.560Z,45.47
2023-04-09T09:22:42.502Z,50.75
2023-04-09T09:23:42.499Z,43.58
2023-04-09T09:24:42.481Z,48.19
2023-04-09T09:25:42.471Z,45.93
2023-04-09T09:26:42.497Z,44.86
2023-04-09T09:27:42.463Z,40.96
2023-04-09T09:28:42.453Z,46.43
2023-04-09T09:29:42.399Z,52.50
2023-04-09T09:30:42.451Z,49.18
2023-04-09T09:31:42.422Z,42.74
2023-04-09T09:32:42.433Z,43.83
2023-04-09T09:33:42.401Z,43.84
2023-04-09T09:34:42.414Z,50.62
2023-04-09T09:35:42.410Z,42.39
2023-04-09T09:36:42.355Z,44.37
2023-04-09T09:37:42.334Z,42.73
2023-04-09T09:38:42.336Z,47.20
2023-04-09T09:39:42.316Z,43.99
2023-04-09T09:40:42.341Z,46.66
2023-04-09T09:41:42.330Z,48.69
2023-04-09T09:42:42.311Z,55.21
2023-04-09T09:43:42.338Z,48.66
2023-04-09T09:44:42.247Z,47.75
2023-04-09T09:45:42.264Z,53.99
2023-04-09T09:46:42.279Z,58.58
2023-04-09T09:47:42.266Z,41.87
2023-04-09T09:48:42.194Z,45.68
2023-04-09T09:49:42.171Z,43.41
2023-04-09T09:50:42.185Z,46.23
2023-04-09T09:51:42.177Z,44.60
2023-04-09T09:52:42.167Z,40.69
2023-04-09T09:53:42.158Z,44.61
2023-04-09T09:54:42.134Z,46.24
2023-04-09T09:55:42.128Z,42.51
2023-04-09T09:56:42.118Z,47.15
2023-04-09T09:57:42.175Z,46.25
2023-04-09T09:58:42.094Z,43.29
2023-04-09T09:59:42.084Z,41.77
2023-04-09T10:00:42.062Z,47.90
2023-04-09T10:01:42.141Z,45.20
2023-04-09T10:02:42.170Z,45.67
2023-04-09T10:03:42.008Z,50.01
2023-04-09T10:04:42.067Z,48.17
2023-04-09T10:05:42.009Z,50.25
2023-04-09T10:06:41.993Z,50.03
2023-04-09T10:07:42.007Z,46.87
2023-04-09T10:08:41.985Z,46.17
2023-04-09T10:09:41.967Z,48.61
2023-04-09T10:10:41.984Z,44.98
2023-04-09T10:11:41.949Z,42.60
2023-04-09T10:12:41.948Z,43.73
2023-04-09T10:13:41.917Z,45.02
2023-04-09T10:14:41.899Z,43.11
2023-04-09T10:15:41.942Z,44.46
2023-04-09T10:16:41.910Z,48.11
2023-04-09T10:17:41.986Z,44.97
2023-04-09T10:18:41.868Z,52.06
2023-04-09T10:19:41.865Z,43.31
2023-04-09T10:20:41.878Z,43.14
2023-04-09T10:21:42.840Z,41.16
2023-04-09T10:22:42.846Z,47.74
2023-04-09T10:23:41.824Z,43.24
2023-04-09T10:24:41.801Z,43.08
2023-04-09T10:25:41.797Z,43.62
2023-04-09T10:26:41.834Z,44.85
2023-04-09T10:27:41.811Z,44.77
2023-04-09T10:28:41.759Z,43.17
2023-04-09T10:29:41.758Z,43.42
2023-04-09T10:30:41.754Z,48.04
2023-04-09T10:31:41.811Z,41.85
2023-04-09T10:32:41.782Z,42.20
2023-04-09T10:33:41.708Z,43.62
2023-04-09T10:34:41.768Z,42.47
2023-04-09T10:35:41.727Z,46.54
2023-04-09T10:36:41.706Z,42.27
2023-04-09T10:37:41.732Z,40.70
2023-04-09T10:38:41.728Z,42.15
2023-04-09T10:39:41.715Z,40.96
2023-04-09T10:40:41.675Z,43.80
2023-04-09T10:41:41.686Z,47.23
2023-04-09T10:42:41.642Z,41.04
2023-04-09T10:43:41.627Z,39.72
2023-04-09T10:44:41.729Z,41.42
2023-04-09T10:45:41.623Z,41.81
2023-04-09T10:46:41.701Z,47.65
2023-04-09T10:47:41.656Z,45.62
2023-04-09T10:48:41.607Z,42.08
2023-04-09T10:49:41.593Z,43.48
2023-04-09T10:50:41.555Z,43.86
2023-04-09T10:51:41.537Z,42.37
2023-04-09T10:52:41.528Z,43.99
2023-04-09T10:53:41.521Z,39.95
2023-04-09T10:54:42.545Z,40.60
2023-04-09T10:55:41.518Z,42.99
2023-04-09T10:56:41.479Z,50.83
2023-04-09T10:57:41.507Z,44.21
2023-04-09T10:58:41.500Z,42.12
2023-04-09T10:59:41.468Z,44.49
2023-04-09T11:00:41.490Z,42.06
2023-04-09T11:01:41.504Z,41.76
2023-04-09T11:02:41.536Z,44.09
2023-04-09T11:03:41.463Z,40.97
2023-04-09T11:04:41.432Z,39.64
2023-04-09T11:05:41.410Z,43.94
2023-04-09T11:06:41.380Z,40.67
2023-04-09T11:07:41.390Z,42.86
2023-04-09T11:08:41.376Z,38.93
2023-04-09T11:09:41.348Z,46.48
2023-04-09T11:10:41.336Z,42.36
2023-04-09T11:11:41.322Z,41.86
2023-04-09T11:12:41.322Z,38.24
2023-04-09T11:13:41.323Z,44.49
2023-04-09T11:14:41.312Z,42.95
2023-04-09T11:15:41.301Z,46.11
2023-04-09T11:16:41.335Z,44.06
2023-04-09T11:17:41.356Z,42.91
2023-04-09T11:18:41.261Z,40.49
2023-04-09T11:19:41.286Z,45.39
2023-04-09T11:20:41.282Z,43.16
2023-04-09T11:21:41.237Z,44.72
2023-04-09T11:22:41.198Z,40.44
2023-04-09T11:23:41.260Z,42.76
2023-04-09T11:24:41.219Z,45.56
2023-04-09T11:25:41.196Z,48.28
2023-04-09T11:26:41.917Z,43.29
2023-04-09T11:27:41.209Z,43.54
2023-04-09T11:28:41.367Z,47.04
2023-04-09T11:29:41.197Z,45.02
2023-04-09T11:30:41.182Z,47.61
2023-04-09T11:31:41.168Z,42.28
2023-04-09T11:32:42.132Z,41.78
2023-04-09T11:33:41.197Z,44.55
2023-04-09T11:34:41.126Z,45.16
2023-04-09T11:35:41.129Z,45.34
2023-04-09T11:36:41.118Z,44.37
2023-04-09T11:37:41.092Z,49.44
2023-04-09T11:38:41.091Z,45.18
2023-04-09T11:39:41.071Z,42.83
2023-04-09T11:40:41.065Z,44.18
2023-04-09T11:41:41.065Z,42.47
2023-04-09T11:42:41.045Z,44.22
2023-04-09T11:43:41.064Z,47.82
2023-04-09T11:44:41.019Z,45.27
2023-04-09T11:45:41.010Z,45.08
2023-04-09T11:46:41.094Z,49.88
2023-04-09T11:47:41.024Z,45.71
2023-04-09T11:48:40.988Z,44.81
2023-04-09T11:49:40.968Z,44.52
2023-04-09T11:50:40.968Z,50.11
2023-04-09T11:51:41.002Z,51.76
2023-04-09T11:52:40.926Z,47.35
2023-04-09T11:53:40.933Z,45.59
2023-04-09T11:54:40.926Z,49.58
2023-04-09T11:55:40.945Z,48.49
2023-04-09T11:56:40.921Z,43.91
2023-04-09T11:57:40.914Z,47.05
2023-04-09T11:58:40.916Z,44.97
2023-04-09T11:59:40.876Z,45.36
2023-04-09T12:00:40.877Z,45.67
2023-04-09T12:01:40.948Z,42.89
2023-04-09T12:02:40.980Z,42.86
2023-04-09T12:03:40.908Z,50.28
2023-04-09T12:04:40.915Z,44.42
2023-04-09T12:05:42.796Z,46.69
2023-04-09T12:06:41.819Z,48.02
2023-04-09T12:07:44.162Z,42.87
2023-04-09T12:08:42.820Z,46.04
2023-04-09T12:09:40.783Z,49.43
2023-04-09T12:10:40.790Z,44.19
2023-04-09T12:11:40.759Z,43.01
2023-04-09T12:12:40.728Z,43.50
2023-04-09T12:13:40.747Z,45.30
2023-04-09T12:14:40.725Z,44.24
2023-04-09T12:15:40.723Z,47.39
2023-04-09T12:16:40.763Z,45.62
2023-04-09T12:17:40.736Z,42.62
2023-04-09T12:18:40.717Z,42.31
2023-04-09T12:19:40.659Z,47.95
2023-04-09T12:20:40.696Z,49.40
2023-04-09T12:21:40.648Z,44.63
2023-04-09T12:22:40.681Z,47.91
2023-04-09T12:23:40.670Z,45.56
2023-04-09T12:24:40.635Z,43.74
2023-04-09T12:25:40.598Z,44.92
2023-04-09T12:26:40.615Z,46.91
2023-04-09T12:27:40.593Z,46.07
2023-04-09T12:28:40.626Z,45.52
2023-04-09T12:29:40.560Z,48.40
2023-04-09T12:30:40.622Z,46.86
2023-04-09T12:31:40.636Z,44.87
2023-04-09T12:32:40.595Z,47.61
2023-04-09T12:33:40.630Z,47.94
2023-04-09T12:34:40.522Z,47.93
2023-04-09T12:35:41.824Z,46.75
2023-04-09T12:36:40.522Z,47.81
2023-04-09T12:37:40.510Z,47.40
2023-04-09T12:38:40.513Z,43.29
2023-04-09T12:39:40.480Z,45.33
2023-04-09T12:40:40.472Z,44.59
2023-04-09T12:41:40.462Z,48.81
2023-04-09T12:42:40.464Z,47.72
2023-04-09T12:43:40.450Z,41.10
2023-04-09T12:44:40.414Z,42.75
2023-04-09T12:45:40.410Z,44.02
2023-04-09T12:46:40.414Z,47.38
2023-04-09T12:47:40.411Z,43.04
2023-04-09T12:48:40.425Z,42.71
2023-04-09T12:49:42.324Z,45.56
2023-04-09T12:50:41.378Z,42.60
2023-04-09T12:51:40.329Z,47.35
2023-04-09T12:52:40.352Z,46.75
2023-04-09T12:53:40.361Z,46.94